.
WxDataArchive / Data Records for 2009-05-16
2009-05-15 May 2009 2009-05-17

Data Records for Saturday, 16 May 2009

Time	Temp	Chill	HIndex	Humid	Dewpt	 Wind 	HiWind	WindDir	Rain 	Barom 
-----	----	-----	------	-----	-----	------	------	-------	-----	----- 
00:00	58.3	58.3	58.3	84	53.5	1	3	112	0.00	29.882 
00:05	58.3	58.3	58.3	83	53.2	1	3	135	0.00	29.882 
00:10	58.3	58.3	58.3	84	53.5	1	2	135	0.00	29.882 
00:15	58.3	58.3	58.3	84	53.5	1	4	90	0.00	29.865 
00:20	58.1	58.1	58.1	84	53.3	1	4	90	0.00	29.865 
00:25	58.1	58.1	58.1	84	53.3	1	4	90	0.00	29.865 
00:30	58.0	58.0	58.0	84	53.2	1	4	112	0.00	29.854 
00:35	57.8	57.8	57.8	84	53.0	2	5	90	0.01	29.854 
00:40	57.6	57.6	57.6	86	53.4	2	5	90	0.00	29.854 
00:45	57.3	57.3	57.3	87	53.5	1	4	90	0.00	29.843 
00:50	57.2	57.2	57.2	88	53.7	1	3	112	0.00	29.843 
00:55	57.0	57.0	57.0	88	53.5	0	2	112	0.00	29.843 
01:00	57.0	57.0	57.0	89	53.8	0	3	112	0.00	29.856 
01:05	57.0	57.0	57.0	89	53.8	0	2	112	0.02	29.856 
01:10	57.0	57.0	57.0	90	54.1	1	2	112	0.01	29.856 
01:15	56.9	56.9	56.9	91	54.3	1	4	112	0.00	29.872 
01:20	56.9	56.9	56.9	91	54.3	0	1	338	0.01	29.872 
01:25	56.9	56.9	56.9	92	54.6	0	0	---	0.02	29.872 
01:30	56.7	56.7	56.7	92	54.4	0	0	---	0.01	29.854 
01:35	56.7	56.7	56.7	92	54.4	0	0	---	0.01	29.854 
01:40	56.7	56.7	56.7	93	54.7	0	0	---	0.00	29.854 
01:45	56.7	56.7	56.7	93	54.7	0	0	---	0.01	29.862 
01:50	56.7	56.7	56.7	93	54.7	0	0	---	0.00	29.862 
01:55	56.7	56.7	56.7	93	54.7	0	1	338	0.01	29.862 
02:00	56.7	56.7	56.7	94	55.0	0	0	---	0.00	29.836 
02:05	56.7	56.7	56.7	94	55.0	0	0	---	0.00	29.836 
02:10	56.7	56.7	56.7	94	55.0	0	1	338	0.00	29.836 
02:15	56.7	56.7	56.7	94	55.0	0	1	338	0.01	29.849 
02:20	56.9	56.9	56.9	94	55.2	0	1	338	0.01	29.849 
02:25	56.9	56.9	56.9	94	55.2	0	1	338	0.00	29.849 
02:30	57.0	57.0	57.0	95	55.6	0	0	---	0.01	29.825 
02:35	57.0	57.0	57.0	95	55.6	0	0	---	0.01	29.825 
02:40	57.2	57.2	57.2	95	55.8	0	0	---	0.00	29.825 
02:45	57.3	57.3	57.3	95	55.9	0	0	---	0.01	29.807 
02:50	57.5	57.5	57.5	95	56.1	0	0	---	0.01	29.807 
02:55	57.5	57.5	57.5	95	56.1	0	0	---	0.00	29.807 
03:00	57.6	57.6	57.6	95	56.2	0	0	---	0.01	29.798 
03:05	57.8	57.8	57.8	95	56.4	0	0	---	0.00	29.798 
03:10	58.0	58.0	58.0	95	56.6	0	0	---	0.00	29.798 
03:15	58.1	58.1	58.1	95	56.7	0	1	338	0.00	29.804 
03:20	58.3	58.3	58.3	95	56.9	0	1	338	0.00	29.804 
03:25	58.3	58.3	58.3	96	57.2	0	0	---	0.00	29.804 
03:30	58.4	58.4	58.4	96	57.3	0	1	338	0.00	29.811 
03:35	58.6	58.6	58.6	96	57.5	0	0	---	0.01	29.811 
03:40	58.6	58.6	58.6	96	57.5	0	0	---	0.00	29.811 
03:45	58.7	58.7	58.7	96	57.6	0	0	---	0.00	29.813 
03:50	58.9	58.9	58.9	96	57.8	0	0	---	0.00	29.813 
03:55	59.3	59.3	59.3	96	58.2	0	1	338	0.00	29.813 
04:00	60.2	60.2	60.2	96	59.1	0	2	338	0.00	29.806 
04:05	61.3	61.3	61.3	97	60.4	1	3	270	0.00	29.806 
04:10	62.0	62.0	62.0	96	60.8	1	5	270	0.00	29.806 
04:15	62.1	62.1	62.1	96	60.9	1	5	248	0.00	29.803 
04:20	62.1	62.1	62.1	96	60.9	1	3	248	0.00	29.803 
04:25	62.1	62.1	62.1	96	60.9	0	3	248	0.00	29.803 
04:30	62.1	62.1	62.1	96	60.9	1	9	225	0.00	29.806 
04:35	62.1	62.1	62.1	96	60.9	1	3	270	0.00	29.806 
04:40	62.1	62.1	62.1	96	60.9	1	3	248	0.00	29.806 
04:45	62.1	62.1	62.1	96	60.9	1	2	248	0.00	29.808 
04:50	62.1	62.1	62.1	96	60.9	1	3	292	0.00	29.808 
04:55	62.1	62.1	62.1	96	60.9	1	4	270	0.00	29.808 
05:00	62.0	62.0	62.0	93	59.9	1	3	270	0.00	29.810 
05:05	62.0	62.0	62.0	96	60.8	1	3	248	0.00	29.810 
05:10	62.0	62.0	62.0	96	60.8	1	5	248	0.00	29.810 
05:15	62.0	62.0	62.0	96	60.8	1	4	292	0.00	29.818 
05:20	62.0	62.0	62.0	96	60.8	1	5	248	0.00	29.818 
05:25	62.0	62.0	62.0	96	60.8	1	5	248	0.00	29.818 
05:30	62.0	62.0	62.0	96	60.8	1	4	248	0.00	29.821 
05:35	62.0	62.0	62.0	96	60.8	1	6	270	0.00	29.821 
05:40	61.8	61.8	61.8	96	60.6	1	4	270	0.00	29.821 
05:45	62.0	62.0	62.0	96	60.8	1	4	248	0.00	29.827 
05:50	62.0	62.0	62.0	96	60.8	1	4	270	0.00	29.827 
05:55	62.0	62.0	62.0	96	60.8	1	4	248	0.00	29.827 
06:00	62.1	62.1	62.1	96	60.9	2	5	248	0.00	29.835 
06:05	62.1	62.1	62.1	95	60.6	2	4	248	0.00	29.835 
06:10	62.3	62.3	62.3	95	60.8	2	3	248	0.00	29.835 
06:15	62.3	62.3	62.3	95	60.8	2	5	248	0.00	29.840 
06:20	62.3	62.3	62.3	95	60.8	2	7	248	0.00	29.840 
06:25	62.3	62.3	62.3	95	60.8	2	4	248	0.00	29.840 
06:30	62.4	62.4	62.4	95	60.9	2	4	270	0.00	29.850 
06:35	62.4	62.4	62.4	95	60.9	2	4	248	0.00	29.850 
06:40	62.4	62.4	62.4	95	60.9	1	4	248	0.00	29.850 
06:45	62.4	62.4	62.4	95	60.9	1	3	248	0.00	29.853 
06:50	62.4	62.4	62.4	94	60.6	1	3	248	0.00	29.853 
06:55	62.4	62.4	62.4	94	60.6	1	3	248	0.00	29.853 
07:00	62.4	62.4	62.4	94	60.6	1	4	248	0.00	29.847 
07:05	62.4	62.4	62.4	94	60.6	1	3	248	0.00	29.847 
07:10	62.4	62.4	62.4	94	60.6	1	6	270	0.00	29.847 
07:15	62.4	62.4	62.4	94	60.6	1	4	292	0.00	29.856 
07:20	62.6	62.6	62.6	94	60.8	1	4	248	0.00	29.856 
07:25	62.6	62.6	62.6	94	60.8	1	3	248	0.00	29.856 
07:30	62.6	62.6	62.6	94	60.8	1	4	270	0.00	29.853 
07:35	62.6	62.6	62.6	94	60.8	1	4	248	0.00	29.853 
07:40	62.6	62.6	62.6	94	60.8	1	3	248	0.00	29.853 
07:45	62.6	62.6	62.6	94	60.8	2	5	248	0.00	29.858 
07:50	62.6	62.6	62.6	93	60.5	2	4	248	0.00	29.858 
07:55	62.6	62.6	62.6	93	60.5	2	6	248	0.00	29.858 
08:00	62.6	62.6	62.6	93	60.5	2	4	248	0.00	29.864 
08:05	62.6	62.6	62.6	93	60.5	1	5	248	0.00	29.864 
08:10	62.6	62.6	62.6	93	60.5	2	4	270	0.00	29.864 
08:15	62.6	62.6	62.6	93	60.5	2	4	270	0.00	29.871 
08:20	62.6	62.6	62.6	92	60.2	1	4	248	0.00	29.871 
08:25	62.6	62.6	62.6	92	60.2	1	3	248	0.00	29.871 
08:30	62.6	62.6	62.6	92	60.2	2	5	248	0.00	29.871 
08:35	62.6	62.6	62.6	92	60.2	1	4	248	0.00	29.871 
08:40	62.6	62.6	62.6	92	60.2	2	4	248	0.00	29.871 
08:45	62.7	62.7	62.7	92	60.3	1	3	248	0.00	29.864 
08:50	63.1	63.1	63.1	92	60.7	1	3	248	0.00	29.864 
08:55	63.1	63.1	63.1	92	60.7	1	4	248	0.00	29.864 
09:00	62.9	62.9	62.9	91	60.2	2	6	248	0.00	29.870 
09:05	62.9	62.9	62.9	91	60.2	2	5	248	0.00	29.870 
09:10	62.9	62.9	62.9	91	60.2	2	5	292	0.00	29.870 
09:15	63.1	63.1	63.1	91	60.4	1	6	270	0.00	29.873 
09:20	63.1	63.1	63.1	91	60.4	2	6	270	0.00	29.873 
09:25	63.4	63.4	63.4	90	60.4	2	4	248	0.00	29.873 
09:30	63.5	63.5	63.5	90	60.5	2	4	248	0.00	29.873 
09:35	63.7	63.7	63.7	89	60.4	1	4	248	0.00	29.873 
09:40	63.7	63.7	63.7	89	60.4	2	5	270	0.00	29.873 
09:45	63.9	63.9	63.9	89	60.6	1	4	248	0.00	29.882 
09:50	63.7	63.7	63.7	88	60.1	2	5	248	0.00	29.882 
09:55	63.7	63.7	63.7	88	60.1	2	7	248	0.00	29.882 
10:00	63.7	63.7	63.7	88	60.1	2	4	270	0.00	29.883 
10:05	63.5	63.5	63.5	88	59.9	2	5	225	0.00	29.883 
10:10	63.4	63.4	63.4	88	59.8	3	9	248	0.00	29.883 
10:15	63.4	63.4	63.4	88	59.8	3	6	270	0.00	29.889 
10:20	63.2	63.2	63.2	88	59.6	3	5	270	0.00	29.889 
10:25	63.2	63.2	63.2	89	59.9	1	4	248	0.00	29.889 
10:30	63.2	63.2	63.2	89	59.9	2	5	270	0.00	29.893 
10:35	63.2	63.2	63.2	89	59.9	3	7	248	0.00	29.893 
10:40	63.2	63.2	63.2	89	59.9	2	5	248	0.00	29.893 
10:45	63.2	63.2	63.2	89	59.9	2	3	292	0.00	29.899 
10:50	63.1	63.1	63.1	89	59.8	2	4	248	0.00	29.899 
10:55	63.1	63.1	63.1	89	59.8	3	5	248	0.00	29.899 
11:00	62.9	62.9	62.9	90	59.9	2	6	248	0.00	29.903 
11:05	62.9	62.9	62.9	90	59.9	1	5	248	0.00	29.903 
11:10	62.9	62.9	62.9	90	59.9	2	6	248	0.00	29.903 
11:15	62.7	62.7	62.7	90	59.7	2	5	270	0.00	29.909 
11:20	62.7	62.7	62.7	90	59.7	2	5	292	0.00	29.909 
11:25	62.4	62.4	62.4	91	59.7	2	3	270	0.01	29.909 
11:30	62.4	62.4	62.4	92	60.0	1	2	270	0.00	29.920 
11:35	62.3	62.3	62.3	92	59.9	1	3	270	0.00	29.920 
11:40	62.3	62.3	62.3	93	60.2	1	3	270	0.00	29.920 
11:45	62.4	62.4	62.4	93	60.3	1	2	270	0.01	29.924 
11:50	62.3	62.3	62.3	93	60.2	1	4	248	0.00	29.924 
11:55	62.3	62.3	62.3	93	60.2	1	3	248	0.00	29.924 
12:00	62.1	62.1	62.1	93	60.0	2	5	248	0.00	29.926 
12:05	61.6	61.6	61.6	93	59.6	2	5	292	0.00	29.926 
12:10	61.5	61.5	61.5	93	59.5	1	4	315	0.00	29.926 
12:15	61.5	61.5	61.5	93	59.5	1	3	315	0.00	29.932 
12:20	61.3	61.3	61.3	93	59.3	2	4	315	0.00	29.932 
12:25	61.5	61.5	61.5	93	59.5	1	3	315	0.00	29.932 
12:30	61.5	61.5	61.5	93	59.5	2	5	270	0.01	29.940 
12:35	61.5	61.5	61.5	94	59.8	2	4	270	0.00	29.940 
12:40	61.5	61.5	61.5	94	59.8	2	5	315	0.00	29.940 
12:45	60.7	60.7	60.7	93	58.7	2	7	315	0.01	29.943 
12:50	60.1	60.1	60.1	93	58.1	3	6	315	0.00	29.943 
12:55	60.1	60.1	60.1	93	58.1	2	6	292	0.00	29.943 
13:00	60.1	60.1	60.1	93	58.1	2	7	315	0.00	29.958 
13:05	58.3	58.3	58.3	91	55.7	3	9	292	0.00	29.958 
13:10	57.5	57.5	57.5	90	54.6	2	5	315	0.00	29.958 
13:15	57.0	57.0	57.0	91	54.4	2	4	315	0.00	29.969 
13:20	57.0	57.0	57.0	91	54.4	1	3	292	0.00	29.969 
13:25	57.2	57.2	57.2	92	54.9	0	3	270	0.00	29.969 
13:30	56.9	56.9	56.9	91	54.3	1	3	270	0.00	29.976 
13:35	56.9	56.9	56.9	90	54.0	2	5	292	0.00	29.976 
13:40	57.0	57.0	57.0	89	53.8	3	7	315	0.00	29.976 
13:45	57.5	57.5	57.5	88	54.0	2	6	292	0.00	29.979 
13:50	58.0	58.0	58.0	86	53.8	2	4	315	0.00	29.979 
13:55	58.1	58.1	58.1	84	53.3	2	6	270	0.00	29.979 
14:00	57.8	57.8	57.8	84	53.0	2	6	315	0.00	29.987 
14:05	57.6	57.6	57.6	84	52.8	1	3	315	0.00	29.987 
14:10	57.6	57.6	57.6	85	53.1	1	4	292	0.00	29.987 
14:15	57.8	57.8	57.8	84	53.0	2	5	292	0.00	29.990 
14:20	58.1	58.1	58.1	82	52.6	3	6	292	0.00	29.990 
14:25	58.7	58.7	58.7	81	52.9	2	5	338	0.00	29.990 
14:30	59.2	59.2	59.2	81	53.4	2	6	315	0.00	29.994 
14:35	59.6	59.6	59.6	79	53.1	2	5	292	0.00	29.994 
14:40	60.5	60.5	60.5	77	53.2	2	5	270	0.00	29.994 
14:45	61.3	61.3	61.3	75	53.3	2	4	315	0.00	29.992 
14:50	61.2	61.2	61.2	75	53.2	1	5	292	0.00	29.992 
14:55	61.2	61.2	61.2	73	52.5	2	5	292	0.00	29.992 
15:00	62.0	62.0	62.0	71	52.5	2	6	292	0.00	29.994 
15:05	62.7	62.7	62.7	68	52.0	2	5	315	0.00	29.994 
15:10	63.4	63.4	63.4	64	51.0	2	6	270	0.00	29.994 
15:15	63.2	63.2	63.2	60	49.1	3	7	270	0.00	29.993 
15:20	63.4	63.4	63.4	62	50.1	3	5	315	0.00	29.993 
15:25	63.5	63.5	63.5	58	48.5	3	6	270	0.00	29.993 
15:30	64.0	64.0	64.0	61	50.3	2	5	270	0.00	29.996 
15:35	64.0	64.0	64.0	60	49.8	2	6	292	0.00	29.996 
15:40	64.0	64.0	64.0	60	49.8	2	7	292	0.00	29.996 
15:45	64.0	64.0	64.0	58	48.9	3	5	315	0.00	30.000 
15:50	64.0	64.0	64.0	58	48.9	3	7	270	0.00	30.000 
15:55	64.2	64.2	64.2	60	50.0	2	6	315	0.00	30.000 
16:00	64.5	64.5	64.5	56	48.4	2	4	292	0.00	29.997 
16:05	63.9	63.9	63.9	51	45.4	3	6	292	0.00	29.997 
16:10	63.4	63.4	63.4	55	46.9	4	9	315	0.00	29.997 
16:15	63.2	63.2	63.2	53	45.8	3	5	315	0.00	30.001 
16:20	63.4	63.4	63.4	53	46.0	2	10	292	0.00	30.001 
16:25	63.4	63.4	63.4	52	45.5	3	9	292	0.00	30.001 
16:30	63.2	63.2	63.2	53	45.8	3	5	315	0.00	30.002 
16:35	63.1	63.1	63.1	52	45.2	3	7	315	0.00	30.002 
16:40	63.2	63.2	63.2	52	45.3	2	6	315	0.00	30.002 
16:45	63.1	63.1	63.1	52	45.2	3	7	292	0.00	30.003 
16:50	63.2	63.2	63.2	54	46.3	2	7	292	0.00	30.003 
16:55	63.1	63.1	63.1	54	46.2	2	6	292	0.00	30.003 
17:00	62.7	62.7	62.7	51	44.3	3	5	292	0.00	30.014 
17:05	61.8	61.8	61.8	52	44.0	4	7	315	0.00	30.014 
17:10	61.5	61.5	61.5	52	43.7	3	9	292	0.00	30.014 
17:15	60.7	60.7	60.7	50	41.9	4	9	270	0.00	30.024 
17:20	60.1	60.1	60.1	50	41.4	3	10	292	0.00	30.024 
17:25	59.6	59.6	59.6	49	40.4	4	10	292	0.00	30.024 
17:30	59.3	59.3	59.3	48	39.6	3	10	315	0.00	30.036 
17:35	59.2	59.2	59.2	49	40.0	3	10	292	0.00	30.036 
17:40	59.3	59.3	59.3	50	40.7	2	5	315	0.00	30.036 
17:45	59.5	59.5	59.5	45	38.1	3	10	338	0.00	30.046 
17:50	59.0	59.0	59.0	46	38.2	3	7	315	0.00	30.046 
17:55	58.7	58.7	58.7	47	38.5	3	7	315	0.00	30.046 
18:00	58.6	58.6	58.6	43	36.2	3	11	292	0.00	30.053 
18:05	58.3	58.3	58.3	46	37.6	4	11	315	0.00	30.053 
18:10	58.1	58.1	58.1	47	38.0	3	5	292	0.00	30.053 
18:15	58.1	58.1	58.1	46	37.4	3	10	292	0.00	30.054 
18:20	58.3	58.3	58.3	48	38.7	2	7	292	0.00	30.054 
18:25	58.3	58.3	58.3	45	37.1	3	6	292	0.00	30.054 
18:30	58.3	58.3	58.3	45	37.1	3	9	292	0.00	30.054 
18:35	58.3	58.3	58.3	43	35.9	3	6	315	0.00	30.054 
18:40	58.0	58.0	58.0	40	33.8	4	12	292	0.00	30.054 
18:45	57.8	57.8	57.8	39	33.0	3	7	292	0.00	30.063 
18:50	57.6	57.6	57.6	42	34.7	3	6	315	0.00	30.063 
18:55	57.6	57.6	57.6	42	34.7	3	10	315	0.00	30.063 
19:00	57.3	57.3	57.3	42	34.4	3	7	315	0.00	30.069 
19:05	56.9	56.9	56.9	39	32.2	4	9	315	0.00	30.069 
19:10	56.6	56.6	56.6	38	31.3	3	11	292	0.00	30.069 
19:15	56.3	56.3	56.3	37	30.4	2	10	315	0.00	30.086 
19:20	56.2	56.2	56.2	38	30.9	2	6	292	0.00	30.086 
19:25	56.2	56.2	56.2	40	32.2	1	4	292	0.00	30.086 
19:30	56.0	56.0	56.0	39	31.4	2	11	315	0.00	30.096 
19:35	55.6	55.6	55.6	36	29.1	3	7	292	0.00	30.096 
19:40	55.3	55.3	55.3	37	29.5	2	6	270	0.00	30.096 
19:45	55.1	55.1	55.1	39	30.6	3	7	292	0.00	30.104 
19:50	55.1	55.1	55.1	39	30.6	2	6	315	0.00	30.104 
19:55	55.0	55.0	55.0	40	31.1	1	3	315	0.00	30.104 
20:00	54.7	54.7	54.7	40	30.9	2	7	270	0.00	30.116 
20:05	54.4	54.4	54.4	41	31.2	1	4	270	0.00	30.116 
20:10	54.1	54.1	54.1	42	31.5	1	3	315	0.00	30.116 
20:15	53.9	53.9	53.9	43	31.9	1	3	315	0.00	30.119 
20:20	53.8	53.8	53.8	43	31.8	1	4	315	0.00	30.119 
20:25	53.5	53.5	53.5	44	32.1	1	5	248	0.00	30.119 
20:30	53.3	53.3	53.3	46	33.1	1	5	248	0.00	30.120 
20:35	53.2	53.2	53.2	47	33.5	1	4	270	0.00	30.120 
20:40	52.9	52.9	52.9	49	34.3	0	3	270	0.00	30.120 
20:45	52.8	52.8	52.8	49	34.2	0	2	292	0.00	30.121 
20:50	52.5	52.5	52.5	49	33.9	1	5	292	0.00	30.121 
20:55	52.5	52.5	52.5	49	33.9	1	3	315	0.00	30.121 
21:00	52.3	52.3	52.3	49	33.7	0	2	315	0.00	30.129 
21:05	52.0	52.0	52.0	49	33.4	0	3	315	0.00	30.129 
21:10	51.9	51.9	51.9	48	32.8	1	3	315	0.00	30.129 
21:15	51.7	51.7	51.7	49	33.2	0	2	315	0.00	30.135 
21:20	51.4	51.4	51.4	50	33.4	0	1	315	0.00	30.135 
21:25	51.1	51.1	51.1	51	33.6	0	1	315	0.00	30.135 
21:30	51.0	51.0	51.0	50	33.0	0	3	270	0.00	30.142 
21:35	50.8	50.8	50.8	51	33.3	0	1	270	0.00	30.142 
21:40	50.7	50.7	50.7	52	33.7	0	1	270	0.00	30.142 
21:45	50.4	50.4	50.4	54	34.4	0	0	---	0.00	30.152 
21:50	50.1	50.1	50.1	54	34.1	0	0	---	0.00	30.152 
21:55	49.6	49.6	49.6	55	34.1	0	0	---	0.00	30.152 
22:00	49.4	49.4	49.4	57	34.8	0	0	---	0.00	30.156 
22:05	49.1	49.1	49.1	56	34.1	0	0	---	0.00	30.156 
22:10	48.9	48.9	48.9	57	34.3	0	0	---	0.00	30.156 
22:15	48.8	48.8	48.8	58	34.7	0	0	---	0.00	30.165 
22:20	48.3	48.3	48.3	60	35.1	0	0	---	0.00	30.165 
22:25	47.9	47.9	47.9	61	35.1	0	0	---	0.00	30.165 
22:30	47.4	47.4	47.4	62	35.0	0	0	---	0.00	30.171 
22:35	47.0	47.0	47.0	64	35.5	0	0	---	0.00	30.171 
22:40	46.7	46.7	46.7	65	35.6	0	0	---	0.00	30.171 
22:45	46.4	46.4	46.4	68	36.4	0	0	---	0.00	30.173 
22:50	46.0	46.0	46.0	70	36.8	0	0	---	0.00	30.173 
22:55	45.7	45.7	45.7	70	36.5	0	0	---	0.00	30.173 
23:00	45.4	45.4	45.4	69	35.8	0	0	---	0.00	30.177 
23:05	45.2	45.2	45.2	70	36.0	0	0	---	0.00	30.177 
23:10	45.5	45.5	45.5	69	35.9	0	1	270	0.00	30.177 
23:15	46.1	46.1	46.1	67	35.8	0	1	270	0.00	30.185 
23:20	46.5	46.5	46.5	66	35.8	0	1	270	0.00	30.185 
23:25	47.0	47.0	47.0	65	35.9	0	1	270	0.00	30.185 
23:30	47.3	47.3	47.3	64	35.7	0	1	270	0.00	30.189 
23:35	47.4	47.4	47.4	63	35.4	0	3	270	0.00	30.189 
23:40	47.6	47.6	47.6	63	35.6	0	1	270	0.00	30.189 
23:45	47.6	47.6	47.6	63	35.6	0	2	270	0.00	30.194 
23:50	47.6	47.6	47.6	62	35.2	0	1	270	0.00	30.194 
23:55	47.6	47.6	47.6	62	35.2	0	2	270	0.00	30.194 

CoCoRaHS
IN-AL-39
A2 Web Hosting
Creative Commons License
GoDaddy
search engine by freefind advanced

loaded 2018-11-15 06:03:53 • last modified 2010-11-18 10:43:29
Privacy PolicyDisclaimer
• wx.awcolley.com is powered by PmWiki v.2002016 •
• all content (unless otherwise noted) © 2018 A W Colley